createdAt,value
2023-01-20T00:02:11.677Z,99710.34
2023-01-20T00:04:38.500Z,99719.63
2023-01-20T00:07:05.317Z,99710.72
2023-01-20T00:09:32.088Z,99706.63
2023-01-20T00:11:58.785Z,99711.94
2023-01-20T00:14:25.898Z,99709.91
2023-01-20T00:16:52.598Z,99706.84
2023-01-20T00:19:19.315Z,99706.28
2023-01-20T00:21:46.073Z,99693.47
2023-01-20T00:24:12.845Z,99682.88
2023-01-20T00:26:39.627Z,99700.25
2023-01-20T00:29:06.649Z,99686.84
2023-01-20T00:31:33.425Z,99692.38
2023-01-20T00:34:00.951Z,99695.06
2023-01-20T00:36:28.741Z,99707.03
2023-01-20T00:38:55.485Z,99702.69
2023-01-20T00:41:22.919Z,99717.94
2023-01-20T00:43:49.678Z,99712.81
2023-01-20T00:46:16.554Z,99723.41
2023-01-20T00:48:43.400Z,99722.00
2023-01-20T00:51:10.860Z,99718.47
2023-01-20T00:53:37.690Z,99732.47
2023-01-20T00:56:04.859Z,99723.81
2023-01-20T00:58:31.708Z,99723.62
2023-01-20T01:00:59.148Z,99740.47
2023-01-20T01:03:28.317Z,99731.06
2023-01-20T01:06:08.387Z,99723.88
2023-01-20T01:08:35.421Z,99720.81
2023-01-20T01:11:02.457Z,99716.12
2023-01-20T01:13:29.276Z,99732.63
2023-01-20T01:15:56.113Z,99735.06
2023-01-20T01:18:22.879Z,99728.13
2023-01-20T01:20:49.647Z,99733.63
2023-01-20T01:23:16.317Z,99728.56
2023-01-20T01:25:43.024Z,99720.03
2023-01-20T01:28:09.771Z,99719.69
2023-01-20T01:30:36.507Z,99712.66
2023-01-20T01:33:03.257Z,99709.69
2023-01-20T01:35:29.980Z,99705.66
2023-01-20T01:37:56.669Z,99712.19
2023-01-20T01:40:23.442Z,99708.00
2023-01-20T01:42:50.182Z,99712.25
2023-01-20T01:45:24.353Z,99714.84
2023-01-20T01:47:54.606Z,99729.06
2023-01-20T01:50:23.831Z,99739.25
2023-01-20T01:52:52.171Z,99725.03
2023-01-20T01:55:22.579Z,99740.72
2023-01-20T01:57:50.430Z,99736.47
2023-01-20T02:00:17.352Z,99732.69
2023-01-20T02:02:45.762Z,99741.75
2023-01-20T02:05:14.042Z,99737.84
2023-01-20T02:07:42.739Z,99749.25
2023-01-20T02:10:09.746Z,99750.28
2023-01-20T02:12:36.552Z,99752.00
2023-01-20T02:15:04.146Z,99746.66
2023-01-20T02:17:30.801Z,99738.22
2023-01-20T02:20:13.000Z,99758.22
2023-01-20T02:22:46.075Z,99738.59
2023-01-20T02:25:22.358Z,99732.38
2023-01-20T02:28:05.461Z,99735.00
2023-01-20T02:30:51.307Z,99729.88
2023-01-20T02:33:45.463Z,99727.31
2023-01-20T02:36:15.879Z,99718.22
2023-01-20T02:38:46.134Z,99712.00
2023-01-20T02:41:26.727Z,99720.97
2023-01-20T02:44:08.791Z,99719.16
2023-01-20T02:46:41.119Z,99716.66
2023-01-20T02:49:20.445Z,99723.88
2023-01-20T02:51:49.972Z,99720.63
2023-01-20T02:54:18.857Z,99730.50
2023-01-20T02:56:46.350Z,99724.91
2023-01-20T02:59:15.871Z,99728.53
2023-01-20T03:01:46.148Z,99731.06
2023-01-20T03:04:14.296Z,99729.59
2023-01-20T03:06:44.238Z,99730.09
2023-01-20T03:09:13.394Z,99720.59
2023-01-20T03:11:43.564Z,99721.16
2023-01-20T03:14:12.255Z,99724.88
2023-01-20T03:16:39.256Z,99716.47
2023-01-20T03:19:06.214Z,99731.94
2023-01-20T03:21:33.624Z,99725.81
2023-01-20T03:24:01.501Z,99730.75
2023-01-20T03:26:28.667Z,99729.53
2023-01-20T03:28:55.801Z,99736.84
2023-01-20T03:31:26.575Z,99738.22
2023-01-20T03:33:55.385Z,99750.63
2023-01-20T03:36:23.766Z,99756.06
2023-01-20T03:38:50.809Z,99746.88
2023-01-20T03:41:23.799Z,99740.88
2023-01-20T03:43:50.501Z,99735.94
2023-01-20T03:46:37.411Z,99736.91
2023-01-20T03:49:27.439Z,99710.63
2023-01-20T03:52:16.052Z,99709.38
2023-01-20T03:54:46.102Z,99705.94
2023-01-20T03:57:15.371Z,99709.44
2023-01-20T03:59:44.178Z,99717.97
2023-01-20T04:02:11.979Z,99725.94
2023-01-20T04:04:39.944Z,99717.75
2023-01-20T04:07:08.379Z,99711.56
2023-01-20T04:09:37.098Z,99689.28
2023-01-20T04:12:04.230Z,99669.41
2023-01-20T04:14:31.056Z,99663.34
2023-01-20T04:16:58.546Z,99665.37
2023-01-20T04:19:26.130Z,99670.69
2023-01-20T04:22:13.084Z,99672.16
2023-01-20T04:24:59.670Z,99663.09
2023-01-20T04:27:26.382Z,99678.50
2023-01-20T04:29:53.101Z,99665.91
2023-01-20T04:32:19.836Z,99666.56
2023-01-20T04:34:46.577Z,99646.97
2023-01-20T04:37:13.286Z,99663.22
2023-01-20T04:39:40.089Z,99654.44
2023-01-20T04:42:06.839Z,99644.56
2023-01-20T04:44:33.631Z,99648.06
2023-01-20T04:47:00.441Z,99638.88
2023-01-20T04:49:27.663Z,99626.84
2023-01-20T04:51:54.476Z,99624.94
2023-01-20T04:54:21.401Z,99622.72
2023-01-20T04:56:48.602Z,99632.31
2023-01-20T04:59:15.342Z,99636.19
2023-01-20T05:01:42.289Z,99654.12
2023-01-20T05:04:09.086Z,99638.09
2023-01-20T05:06:35.933Z,99634.97
2023-01-20T05:09:02.713Z,99654.38
2023-01-20T05:11:29.497Z,99663.41
2023-01-20T05:13:56.193Z,99668.75
2023-01-20T05:16:26.101Z,99672.03
2023-01-20T05:18:52.932Z,99690.00
2023-01-20T05:21:19.655Z,99705.56
2023-01-20T05:23:46.378Z,99713.19
2023-01-20T05:26:13.226Z,99723.84
2023-01-20T05:28:39.943Z,99722.88
2023-01-20T05:31:06.763Z,99722.94
2023-01-20T05:33:33.722Z,99727.78
2023-01-20T05:36:04.377Z,99725.28
2023-01-20T05:38:31.532Z,99719.09
2023-01-20T05:41:02.047Z,99713.25
2023-01-20T05:43:28.919Z,99716.25
2023-01-20T05:45:55.651Z,99705.47
2023-01-20T05:48:22.548Z,99709.06
2023-01-20T05:50:49.378Z,99715.38
2023-01-20T05:53:16.175Z,99705.09
2023-01-20T05:55:43.075Z,99705.28
2023-01-20T05:58:10.371Z,99705.91
2023-01-20T06:00:37.180Z,99701.72
2023-01-20T06:03:04.296Z,99702.66
2023-01-20T06:05:31.110Z,99703.94
2023-01-20T06:07:58.581Z,99713.50
2023-01-20T06:10:28.125Z,99715.28
2023-01-20T06:12:55.691Z,99721.03
2023-01-20T06:15:24.080Z,99721.22
2023-01-20T06:17:51.039Z,99719.37
2023-01-20T06:20:18.160Z,99731.31
2023-01-20T06:22:45.049Z,99724.44
2023-01-20T06:25:12.361Z,99719.44
2023-01-20T06:27:39.364Z,99714.22
2023-01-20T06:30:06.540Z,99709.56
2023-01-20T06:32:33.655Z,99715.31
2023-01-20T06:35:00.718Z,99721.00
2023-01-20T06:37:27.707Z,99732.34
2023-01-20T06:39:54.665Z,99727.47
2023-01-20T06:42:21.758Z,99729.00
2023-01-20T06:44:48.607Z,99725.31
2023-01-20T06:47:15.399Z,99735.78
2023-01-20T06:49:42.867Z,99719.78
2023-01-20T06:52:12.029Z,99717.59
2023-01-20T06:54:41.647Z,99728.19
2023-01-20T06:57:12.209Z,99736.16
2023-01-20T06:59:38.998Z,99750.22
2023-01-20T07:02:07.263Z,99745.12
2023-01-20T07:04:34.140Z,99744.16
2023-01-20T07:07:00.972Z,99756.72
2023-01-20T07:09:27.925Z,99760.22
2023-01-20T07:11:55.137Z,99757.31
2023-01-20T07:14:22.060Z,99754.94
2023-01-20T07:16:48.994Z,99758.19
2023-01-20T07:19:15.920Z,99743.00
2023-01-20T07:21:42.673Z,99750.66
2023-01-20T07:24:09.566Z,99758.47
2023-01-20T07:26:36.656Z,99750.06
2023-01-20T07:29:03.506Z,99746.59
2023-01-20T07:31:31.818Z,99748.22
2023-01-20T07:33:58.874Z,99757.06
2023-01-20T07:36:25.811Z,99766.63
2023-01-20T07:38:53.327Z,99763.94
2023-01-20T07:41:20.847Z,99757.87
2023-01-20T07:43:49.472Z,99763.94
2023-01-20T07:46:16.801Z,99765.84
2023-01-20T07:48:43.766Z,99774.13
2023-01-20T07:51:11.700Z,99769.28
2023-01-20T07:53:39.706Z,99772.78
2023-01-20T07:56:07.967Z,99777.88
2023-01-20T07:58:34.888Z,99766.06
2023-01-20T08:01:15.296Z,99761.38
2023-01-20T08:03:42.313Z,99757.66
2023-01-20T08:06:10.360Z,99764.75
2023-01-20T08:08:37.692Z,99771.72
2023-01-20T08:11:05.161Z,99775.38
2023-01-20T08:13:32.271Z,99777.03
2023-01-20T08:16:02.888Z,99774.94
2023-01-20T08:18:30.056Z,99774.56
2023-01-20T08:20:56.859Z,99785.03
2023-01-20T08:23:23.799Z,99786.94
2023-01-20T08:25:51.921Z,99793.56
2023-01-20T08:28:18.692Z,99804.88
2023-01-20T08:30:45.598Z,99813.62
2023-01-20T08:33:12.438Z,99813.62
2023-01-20T08:35:39.404Z,99817.66
2023-01-20T08:38:09.049Z,99812.13
2023-01-20T08:40:36.082Z,99814.75
2023-01-20T08:43:02.838Z,99805.22
2023-01-20T08:45:29.655Z,99811.66
2023-01-20T08:47:56.530Z,99818.16
2023-01-20T08:50:25.708Z,99816.03
2023-01-20T08:52:52.492Z,99807.28
2023-01-20T08:55:20.212Z,99791.69
2023-01-20T08:57:47.041Z,99792.31
2023-01-20T09:00:14.259Z,99795.41
2023-01-20T09:02:41.798Z,99808.81
2023-01-20T09:05:09.038Z,99808.59
2023-01-20T09:07:36.379Z,99801.25
2023-01-20T09:10:04.318Z,99804.81
2023-01-20T09:12:31.201Z,99797.25
2023-01-20T09:14:59.990Z,99801.13
2023-01-20T09:17:26.771Z,99802.44
2023-01-20T09:19:54.960Z,99803.06
2023-01-20T09:22:21.784Z,99793.50
2023-01-20T09:24:48.567Z,99799.66
2023-01-20T09:27:15.472Z,99801.25
2023-01-20T09:29:42.202Z,99803.31
2023-01-20T09:32:09.172Z,99792.66
2023-01-20T09:34:36.112Z,99801.00
2023-01-20T09:37:23.559Z,99809.81
2023-01-20T09:40:08.596Z,99812.03
2023-01-20T09:42:53.707Z,99797.88
2023-01-20T09:45:31.187Z,99808.19
2023-01-20T09:48:15.721Z,99801.13
2023-01-20T09:51:09.378Z,99802.84
2023-01-20T09:53:38.167Z,99799.75
2023-01-20T09:56:16.347Z,99788.31
2023-01-20T09:59:22.241Z,99782.13
2023-01-20T10:01:51.961Z,99782.09
2023-01-20T10:04:18.929Z,99775.31
2023-01-20T10:06:48.862Z,99775.97
2023-01-20T10:09:18.638Z,99768.94
2023-01-20T10:11:47.297Z,99766.66
2023-01-20T10:14:43.654Z,99762.19
2023-01-20T10:17:12.471Z,99768.47
2023-01-20T10:19:43.109Z,99760.88
2023-01-20T10:22:17.020Z,99758.88
2023-01-20T10:24:48.854Z,99755.69
2023-01-20T10:27:15.780Z,99757.22
2023-01-20T10:29:45.390Z,99758.50
2023-01-20T10:32:32.416Z,99750.75
2023-01-20T10:35:02.894Z,99762.41
2023-01-20T10:37:32.139Z,99761.81
2023-01-20T10:40:03.965Z,99773.06
2023-01-20T10:42:32.790Z,99770.84
2023-01-20T10:45:01.972Z,99765.56
2023-01-20T10:47:28.789Z,99754.59
2023-01-20T10:49:56.433Z,99771.78
2023-01-20T10:52:42.010Z,99766.53
2023-01-20T10:55:15.768Z,99758.41
2023-01-20T10:57:42.764Z,99751.53
2023-01-20T11:00:30.675Z,99748.56
2023-01-20T11:02:59.351Z,99756.97
2023-01-20T11:05:27.951Z,99779.34
2023-01-20T11:07:56.861Z,99774.06
2023-01-20T11:10:46.253Z,99771.00
2023-01-20T11:13:15.250Z,99758.66
2023-01-20T11:15:47.770Z,99751.47
2023-01-20T11:18:14.548Z,99764.09
2023-01-20T11:20:44.416Z,99765.22
2023-01-20T11:23:22.343Z,99767.44
2023-01-20T11:26:16.091Z,99765.16
2023-01-20T11:29:00.054Z,99759.88
2023-01-20T11:31:52.301Z,99735.78
2023-01-20T11:34:22.549Z,99740.84
2023-01-20T11:37:16.574Z,99733.31
2023-01-20T11:39:45.060Z,99721.94
2023-01-20T11:42:25.800Z,99725.63
2023-01-20T11:44:52.608Z,99717.81
2023-01-20T11:47:25.215Z,99711.72
2023-01-20T11:50:09.555Z,99712.25
2023-01-20T11:52:40.695Z,99710.59
2023-01-20T11:55:14.394Z,99704.56
2023-01-20T11:57:55.823Z,99705.56
2023-01-20T12:00:32.441Z,99696.81
2023-01-20T12:03:12.009Z,99690.16
2023-01-20T12:05:54.658Z,99690.66
2023-01-20T12:08:27.044Z,99692.06
2023-01-20T12:10:55.824Z,99689.63
2023-01-20T12:13:30.750Z,99693.78
2023-01-20T12:16:01.566Z,99688.47
2023-01-20T12:18:28.425Z,99689.97
2023-01-20T12:21:02.156Z,99692.12
2023-01-20T12:23:35.414Z,99683.53
2023-01-20T12:26:06.509Z,99689.06
2023-01-20T12:29:09.255Z,99690.97
2023-01-20T12:31:38.194Z,99699.47
2023-01-20T12:34:14.729Z,99707.31
2023-01-20T12:36:42.965Z,99718.87
2023-01-20T12:39:28.357Z,99720.69
2023-01-20T12:42:02.487Z,99712.41
2023-01-20T12:44:29.571Z,99717.69
2023-01-20T12:46:59.091Z,99704.47
2023-01-20T12:49:36.937Z,99715.91
2023-01-20T12:52:21.831Z,99716.44
2023-01-20T12:54:55.988Z,99712.63
2023-01-20T12:57:25.881Z,99717.91
2023-01-20T13:00:12.472Z,99716.63
2023-01-20T13:02:42.087Z,99713.25
2023-01-20T13:05:17.274Z,99722.44
2023-01-20T13:07:44.028Z,99721.13
2023-01-20T13:10:30.849Z,99726.66
2023-01-20T13:13:08.963Z,99733.19
2023-01-20T13:15:40.864Z,99724.09
2023-01-20T13:18:18.061Z,99730.25
2023-01-20T13:20:45.994Z,99738.78
2023-01-20T13:23:18.797Z,99739.75
2023-01-20T13:25:48.935Z,99741.44
2023-01-20T13:28:20.742Z,99747.69
2023-01-20T13:30:51.212Z,99745.62
2023-01-20T13:33:33.873Z,99749.72
2023-01-20T13:36:03.693Z,99752.09
2023-01-20T13:38:33.331Z,99745.47
2023-01-20T13:41:05.523Z,99767.41
2023-01-20T13:43:32.262Z,99755.69
2023-01-20T13:46:05.234Z,99751.81
2023-01-20T13:48:32.747Z,99756.91
2023-01-20T13:51:18.092Z,99751.84
2023-01-20T13:53:47.412Z,99752.25
2023-01-20T13:56:26.116Z,99754.34
2023-01-20T13:58:53.394Z,99751.34
2023-01-20T14:01:20.188Z,99755.03
2023-01-20T14:04:01.367Z,99757.53
2023-01-20T14:06:28.657Z,99756.44
2023-01-20T14:08:55.577Z,99758.91
2023-01-20T14:11:23.643Z,99762.81
2023-01-20T14:13:59.640Z,99766.13
2023-01-20T14:16:28.254Z,99755.75
2023-01-20T14:18:56.773Z,99775.38
2023-01-20T14:21:28.176Z,99783.97
2023-01-20T14:23:55.277Z,99776.44
2023-01-20T14:26:31.792Z,99777.97
2023-01-20T14:28:59.803Z,99780.72
2023-01-20T14:31:36.905Z,99775.06
2023-01-20T14:34:19.900Z,99780.72
2023-01-20T14:36:46.887Z,99777.16
2023-01-20T14:39:27.275Z,99779.44
2023-01-20T14:41:56.256Z,99779.59
2023-01-20T14:44:24.776Z,99785.59
2023-01-20T14:46:53.303Z,99782.56
2023-01-20T14:49:21.534Z,99796.38
2023-01-20T14:51:52.190Z,99787.59
2023-01-20T14:54:30.841Z,99788.06
2023-01-20T14:56:58.900Z,99786.06
2023-01-20T14:59:26.122Z,99797.78
2023-01-20T15:01:57.339Z,99798.72
2023-01-20T15:04:24.355Z,99797.91
2023-01-20T15:06:58.381Z,99807.34
2023-01-20T15:09:26.114Z,99807.62
2023-01-20T15:12:12.779Z,99804.41
2023-01-20T15:14:41.067Z,99805.88
2023-01-20T15:17:08.935Z,99810.75
2023-01-20T15:19:37.901Z,99811.78
2023-01-20T15:22:16.711Z,99819.81
2023-01-20T15:24:49.391Z,99819.78
2023-01-20T15:27:42.535Z,99823.63
2023-01-20T15:30:23.326Z,99830.94
2023-01-20T15:32:51.043Z,99822.03
2023-01-20T15:35:21.173Z,99827.06
2023-01-20T15:37:47.910Z,99833.94
2023-01-20T15:40:15.928Z,99840.50
2023-01-20T15:42:42.789Z,99833.28
2023-01-20T15:45:12.989Z,99841.59
2023-01-20T15:47:41.774Z,99852.62
2023-01-20T15:50:20.405Z,99836.72
2023-01-20T15:52:47.322Z,99837.38
2023-01-20T15:55:15.609Z,99838.25
2023-01-20T15:57:42.842Z,99836.59
2023-01-20T16:00:19.645Z,99840.78
2023-01-20T16:02:46.673Z,99831.44
2023-01-20T16:05:17.866Z,99849.53
2023-01-20T16:07:47.239Z,99848.03
2023-01-20T16:10:15.571Z,99848.47
2023-01-20T16:12:42.917Z,99834.09
2023-01-20T16:15:14.778Z,99847.81
2023-01-20T16:17:41.718Z,99839.22
2023-01-20T16:20:26.781Z,99850.50
2023-01-20T16:22:54.078Z,99848.97
2023-01-20T16:25:21.314Z,99842.19
2023-01-20T16:27:48.122Z,99845.69
2023-01-20T16:30:18.728Z,99862.03
2023-01-20T16:32:46.796Z,99836.47
2023-01-20T16:35:14.416Z,99850.00
2023-01-20T16:37:42.381Z,99855.25
2023-01-20T16:40:13.047Z,99848.19
2023-01-20T16:42:41.939Z,99848.37
2023-01-20T16:45:19.195Z,99851.72
2023-01-20T16:47:45.960Z,99840.84
2023-01-20T16:50:13.030Z,99852.66
2023-01-20T16:52:39.970Z,99857.91
2023-01-20T16:55:07.216Z,99874.41
2023-01-20T16:57:33.934Z,99859.22
2023-01-20T17:00:00.753Z,99874.44
2023-01-20T17:02:27.495Z,99870.56
2023-01-20T17:04:54.346Z,99865.63
2023-01-20T17:07:21.034Z,99880.41
2023-01-20T17:09:47.727Z,99869.38
2023-01-20T17:12:14.630Z,99860.28
2023-01-20T17:14:41.372Z,99868.66
2023-01-20T17:17:08.123Z,99870.50
2023-01-20T17:19:34.813Z,99871.13
2023-01-20T17:22:01.590Z,99862.09
2023-01-20T17:24:28.494Z,99864.41
2023-01-20T17:26:55.214Z,99863.09
2023-01-20T17:29:22.231Z,99856.50
2023-01-20T17:31:49.001Z,99861.41
2023-01-20T17:34:15.785Z,99839.66
2023-01-20T17:36:42.516Z,99847.00
2023-01-20T17:39:10.422Z,99846.25
2023-01-20T17:41:37.198Z,99859.97
2023-01-20T17:44:07.837Z,99863.31
2023-01-20T17:46:34.751Z,99857.47
2023-01-20T17:49:02.221Z,99862.47
2023-01-20T17:51:29.552Z,99844.41
2023-01-20T17:53:57.718Z,99847.81
2023-01-20T17:56:24.832Z,99858.34
2023-01-20T17:58:51.725Z,99848.91
2023-01-20T18:01:19.819Z,99840.09
2023-01-20T18:03:47.598Z,99845.75
2023-01-20T18:06:15.495Z,99838.25
2023-01-20T18:08:42.873Z,99825.72
2023-01-20T18:11:11.162Z,99827.88
2023-01-20T18:13:38.533Z,99828.91
2023-01-20T18:16:05.538Z,99830.91
2023-01-20T18:18:32.367Z,99797.31
2023-01-20T18:21:09.447Z,99806.94
2023-01-20T18:23:39.055Z,99803.91
2023-01-20T18:26:06.937Z,99808.44
2023-01-20T18:28:34.599Z,99807.62
2023-01-20T18:31:12.261Z,99801.81
2023-01-20T18:33:50.140Z,99806.88
2023-01-20T18:36:18.334Z,99807.69
2023-01-20T18:38:49.491Z,99799.62
2023-01-20T18:41:16.250Z,99811.72
2023-01-20T18:43:42.919Z,99799.53
2023-01-20T18:46:10.000Z,99815.41
2023-01-20T18:48:40.635Z,99818.34
2023-01-20T18:51:08.155Z,99819.31
2023-01-20T18:53:35.068Z,99809.31
2023-01-20T18:56:02.829Z,99828.56
2023-01-20T18:58:30.120Z,99816.41
2023-01-20T19:01:04.103Z,99820.28
2023-01-20T19:03:30.965Z,99831.00
2023-01-20T19:06:05.280Z,99823.97
2023-01-20T19:08:32.192Z,99828.41
2023-01-20T19:10:59.672Z,99826.66
2023-01-20T19:13:26.401Z,99828.81
2023-01-20T19:15:53.270Z,99833.72
2023-01-20T19:18:20.010Z,99820.22
2023-01-20T19:20:46.713Z,99825.41
2023-01-20T19:23:13.993Z,99829.06
2023-01-20T19:25:40.701Z,99838.72
2023-01-20T19:28:09.317Z,99835.84
2023-01-20T19:30:38.435Z,99840.31
2023-01-20T19:33:05.151Z,99836.91
2023-01-20T19:35:33.668Z,99837.66
2023-01-20T19:38:00.413Z,99842.63
2023-01-20T19:40:27.148Z,99846.25
2023-01-20T19:42:54.183Z,99839.34
2023-01-20T19:45:20.879Z,99848.41
2023-01-20T19:47:47.648Z,99841.03
2023-01-20T19:50:14.774Z,99853.63
2023-01-20T19:52:41.718Z,99863.34
2023-01-20T19:55:10.448Z,99854.94
2023-01-20T19:57:37.475Z,99884.78
2023-01-20T20:00:04.992Z,99898.56
2023-01-20T20:02:31.781Z,99887.34
2023-01-20T20:04:58.555Z,99912.16
2023-01-20T20:07:25.316Z,99915.44
2023-01-20T20:09:52.381Z,99913.41
2023-01-20T20:12:19.156Z,99909.63
2023-01-20T20:14:46.101Z,99903.03
2023-01-20T20:17:13.528Z,99899.41
2023-01-20T20:19:40.258Z,99913.59
2023-01-20T20:22:07.174Z,99910.44
2023-01-20T20:24:33.980Z,99917.22
2023-01-20T20:27:00.773Z,99919.16
2023-01-20T20:29:28.315Z,99907.31
2023-01-20T20:31:55.121Z,99901.87
2023-01-20T20:34:22.013Z,99912.28
2023-01-20T20:36:48.768Z,99907.94
2023-01-20T20:39:17.577Z,99906.78
2023-01-20T20:41:44.602Z,99918.31
2023-01-20T20:44:11.784Z,99914.81
2023-01-20T20:46:38.999Z,99922.97
2023-01-20T20:49:05.861Z,99940.91
2023-01-20T20:51:41.789Z,99935.59
2023-01-20T20:54:09.644Z,99926.63
2023-01-20T20:56:36.700Z,99930.06
2023-01-20T20:59:03.946Z,99924.25
2023-01-20T21:01:33.005Z,99947.75
2023-01-20T21:04:00.769Z,99941.38
2023-01-20T21:06:28.290Z,99943.34
2023-01-20T21:08:55.188Z,99951.12
2023-01-20T21:11:21.923Z,99960.56
2023-01-20T21:13:49.711Z,99954.78
2023-01-20T21:16:17.748Z,99959.16
2023-01-20T21:18:44.599Z,99966.69
2023-01-20T21:21:12.636Z,99963.44
2023-01-20T21:23:41.618Z,99960.31
2023-01-20T21:26:10.527Z,99972.19
2023-01-20T21:28:37.286Z,99977.06
2023-01-20T21:31:07.632Z,99974.34
2023-01-20T21:33:35.714Z,99973.47
2023-01-20T21:36:04.036Z,99961.72
2023-01-20T21:38:32.421Z,99975.53
2023-01-20T21:41:03.725Z,99985.09
2023-01-20T21:43:49.391Z,99984.13
2023-01-20T21:46:16.561Z,99994.78
2023-01-20T21:49:01.851Z,99980.72
2023-01-20T21:51:47.406Z,99978.19
2023-01-20T21:54:14.140Z,99976.59
2023-01-20T21:56:40.858Z,99984.34
2023-01-20T21:59:08.026Z,99986.19
2023-01-20T22:01:35.300Z,99980.63
2023-01-20T22:04:02.266Z,99984.25
2023-01-20T22:06:29.427Z,99988.72
2023-01-20T22:08:58.560Z,100001.50
2023-01-20T22:11:26.151Z,100000.53
2023-01-20T22:13:54.514Z,100019.22
2023-01-20T22:16:22.970Z,99988.84
2023-01-20T22:18:50.357Z,100006.91
2023-01-20T22:21:17.161Z,100005.84
2023-01-20T22:23:43.891Z,100016.00
2023-01-20T22:26:10.621Z,100017.47
2023-01-20T22:28:40.111Z,100018.06
2023-01-20T22:31:13.389Z,100022.44
2023-01-20T22:33:40.390Z,100020.78
2023-01-20T22:36:07.289Z,100016.75
2023-01-20T22:38:34.482Z,100008.72
2023-01-20T22:41:05.328Z,100005.41
2023-01-20T22:43:34.171Z,100000.44
2023-01-20T22:46:01.743Z,100003.97
2023-01-20T22:48:30.037Z,99995.25
2023-01-20T22:51:01.815Z,99993.31
2023-01-20T22:53:28.519Z,99985.34
2023-01-20T22:56:00.987Z,99986.56
2023-01-20T22:58:28.011Z,99990.47
2023-01-20T23:00:54.780Z,99984.28
2023-01-20T23:03:21.569Z,99976.78
2023-01-20T23:05:52.187Z,99971.75
2023-01-20T23:08:18.951Z,99969.38
2023-01-20T23:10:48.381Z,99976.78
2023-01-20T23:13:15.840Z,99970.37
2023-01-20T23:15:42.828Z,99977.22
2023-01-20T23:18:10.011Z,99988.78
2023-01-20T23:20:37.286Z,99996.16
2023-01-20T23:23:04.463Z,100003.22
2023-01-20T23:25:31.191Z,99991.97
2023-01-20T23:27:57.976Z,99990.88
2023-01-20T23:30:24.690Z,99989.38
2023-01-20T23:32:51.676Z,99983.31
2023-01-20T23:35:18.345Z,99984.00
2023-01-20T23:37:45.187Z,99985.16
2023-01-20T23:40:12.701Z,99978.53
2023-01-20T23:42:39.394Z,99982.41
2023-01-20T23:45:06.652Z,99991.81
2023-01-20T23:47:35.723Z,99993.47
2023-01-20T23:50:03.143Z,99997.72
2023-01-20T23:52:30.080Z,99994.91
2023-01-20T23:54:57.987Z,99991.44
2023-01-20T23:57:24.890Z,100001.88
2023-01-20T23:59:51.648Z,100006.13
